Time;durP1;ratioP1;P1;durP2;ratioP2;P2;SDS_P1;SDS_P2;PMS_P1;PMS_P2;Temp;Humidity;BMP_temperature;BMP_pressure;BME280_temperature;BME280_humidity;BME280_pressure;Samples;Min_cycle;Max_cycle;Signal;HPM_P1;HPM_P2
2022/08/27 00:02:16;;;;;;;11.35;4.28;;;;;;;20.62;72.80;94311.16;4979365;28;20201;-78
2022/08/27 00:04:44;;;;;;;7.80;3.97;;;;;;;20.62;72.87;94313.75;4974021;28;20193;-78
2022/08/27 00:07:12;;;;;;;8.17;4.20;;;;;;;20.47;73.69;94298.44;4971666;28;20186;-79
2022/08/27 00:09:39;;;;;;;11.25;4.65;;;;;;;20.48;74.23;94301.84;4983917;28;20188;-79
2022/08/27 00:12:07;;;;;;;8.38;4.22;;;;;;;20.42;74.51;94300.03;4991277;28;20185;-78
2022/08/27 00:14:37;;;;;;;8.55;4.05;;;;;;;20.01;74.43;94244.91;4990182;28;20702;-79
2022/08/27 00:17:05;;;;;;;11.60;4.65;;;;;;;20.35;74.48;94284.50;4990857;28;20189;-79
2022/08/27 00:19:32;;;;;;;10.50;4.57;;;;;;;20.43;74.36;94299.84;4986540;28;20649;-77
2022/08/27 00:22:00;;;;;;;4.47;3.67;;;;;;;20.38;74.99;94296.25;4973476;28;20201;-83
2022/08/27 00:24:27;;;;;;;7.60;3.67;;;;;;;20.35;75.19;94294.88;4990671;28;20189;-83
2022/08/27 00:26:54;;;;;;;5.77;4.20;;;;;;;20.34;75.39;94289.91;4992967;28;20190;-83
2022/08/27 00:29:21;;;;;;;7.27;3.87;;;;;;;20.33;75.26;94288.31;4992527;28;20199;-81
2022/08/27 00:31:48;;;;;;;11.95;4.90;;;;;;;20.33;75.15;94283.09;4990699;28;20208;-84
2022/08/27 00:34:15;;;;;;;10.70;4.07;;;;;;;20.34;75.43;94285.50;4990656;28;20201;-84
2022/08/27 00:36:42;;;;;;;9.77;4.37;;;;;;;20.25;75.81;94284.13;4980003;28;20201;-83
2022/08/27 00:39:10;;;;;;;9.63;4.27;;;;;;;20.10;76.19;94268.84;4971099;28;20216;-83
2022/08/27 00:41:38;;;;;;;12.23;4.60;;;;;;;20.22;76.19;94293.16;4970972;28;20201;-84
2022/08/27 00:44:06;;;;;;;8.32;4.45;;;;;;;20.08;76.16;94273.44;4971435;28;20197;-85
2022/08/27 00:46:37;;;;;;;14.30;4.73;;;;;;;20.19;76.30;94290.97;4970830;28;20200;-84
2022/08/27 00:49:08;;;;;;;7.60;4.13;;;;;;;20.20;76.12;94296.94;4971026;28;20190;-82
2022/08/27 00:51:37;;;;;;;8.07;4.33;;;;;;;20.05;76.42;94274.66;4971186;28;20189;-83
2022/08/27 00:54:07;;;;;;;5.63;3.93;;;;;;;20.13;76.70;94289.19;4989135;28;20575;-83
2022/08/27 00:56:43;;;;;;;5.03;4.07;;;;;;;20.13;76.66;94289.19;4990593;28;20573;-83
2022/08/27 00:59:13;;;;;;;7.72;4.38;;;;;;;20.12;76.84;94292.81;4990510;28;20224;-81
2022/08/27 01:02:17;;;;;;;5.53;3.63;;;;;;;20.11;77.09;94285.22;4990044;28;20197;-84
2022/08/27 01:04:29;;;;;;;13.20;4.23;;;;;;;20.05;77.17;94285.03;4992042;28;20181;-83
2022/08/27 01:06:57;;;;;;;10.17;4.43;;;;;;;19.58;77.02;94215.31;4990057;28;20185;-84
2022/08/27 01:09:25;;;;;;;8.23;3.90;;;;;;;20.03;77.27;94294.84;4992071;28;20189;-86
2022/08/27 01:11:57;;;;;;;7.37;4.00;;;;;;;20.00;76.96;94290.06;4992883;28;20275;-85
2022/08/27 01:14:26;;;;;;;10.93;3.93;;;;;;;20.00;76.78;94286.66;4994310;28;20328;-80
2022/08/27 01:16:55;;;;;;;8.50;4.40;;;;;;;19.98;76.80;94288.66;4999025;28;20280;-83
2022/08/27 01:19:28;;;;;;;11.40;3.93;;;;;;;19.87;76.55;94264.16;5017974;28;20280;-81
2022/08/27 01:22:00;;;;;;;5.03;3.67;;;;;;;19.91;76.58;94273.13;4999500;28;20200;-83
2022/08/27 01:24:34;;;;;;;11.60;4.20;;;;;;;19.94;76.55;94285.66;4998423;28;20194;-81
2022/08/27 01:27:04;;;;;;;11.57;4.23;;;;;;;19.95;76.51;94282.09;4977682;28;20218;-82
2022/08/27 01:29:31;;;;;;;5.40;4.13;;;;;;;19.92;76.69;94287.69;4975033;28;20198;-82
2022/08/27 01:32:05;;;;;;;6.77;3.97;;;;;;;19.68;76.91;94255.41;4974872;28;20201;-84
2022/08/27 01:34:32;;;;;;;9.83;4.37;;;;;;;19.65;77.12;94261.03;4975669;28;20201;-83
2022/08/27 01:37:01;;;;;;;4.90;4.27;;;;;;;19.70;77.42;94265.59;4993948;28;20190;-86
2022/08/27 01:39:28;;;;;;;5.43;3.63;;;;;;;19.79;77.67;94291.13;4993679;28;20244;-82
2022/08/27 01:42:02;;;;;;;7.33;3.87;;;;;;;19.77;77.38;94287.13;4993492;28;20193;-80
2022/08/27 01:44:29;;;;;;;7.93;3.80;;;;;;;19.80;77.16;94290.09;4994112;28;20227;-81
2022/08/27 01:46:56;;;;;;;12.90;4.17;;;;;;;19.75;77.05;94287.34;4993755;28;20535;-85
2022/08/27 01:49:23;;;;;;;7.73;4.07;;;;;;;19.68;77.16;94277.97;4991017;28;20200;-85
2022/08/27 01:51:51;;;;;;;9.63;4.03;;;;;;;19.71;76.95;94293.91;4974053;28;20198;-84
2022/08/27 01:54:17;;;;;;;11.40;4.33;;;;;;;19.76;76.20;94293.31;4974894;28;20292;-81
2022/08/27 01:56:45;;;;;;;6.47;3.70;;;;;;;19.71;75.67;94295.72;4974059;28;20197;-84
2022/08/27 01:59:13;;;;;;;10.17;3.80;;;;;;;19.69;75.63;94298.53;4958361;28;20225;-82
2022/08/27 02:01:40;;;;;;;12.23;4.33;;;;;;;19.67;75.60;94292.75;4994109;28;20201;-83
2022/08/27 02:04:08;;;;;;;9.37;3.73;;;;;;;19.84;73.80;94294.91;4990777;28;20208;-81
2022/08/27 02:06:35;;;;;;;7.37;4.00;;;;;;;19.87;73.15;94302.28;4973873;28;20193;-80
2022/08/27 02:09:02;;;;;;;7.20;3.53;;;;;;;19.76;73.10;94298.50;4973663;28;20193;-80
2022/08/27 02:11:29;;;;;;;6.87;3.50;;;;;;;19.72;73.19;94297.31;4973227;28;20186;-84
2022/08/27 02:13:55;;;;;;;10.90;3.70;;;;;;;19.63;73.61;94296.72;4956043;28;20612;-82
2022/08/27 02:16:24;;;;;;;6.70;4.17;;;;;;;19.59;73.65;94300.69;4989804;28;20196;-80
2022/08/27 02:18:53;;;;;;;8.83;4.13;;;;;;;19.53;73.92;94307.50;4990069;28;20227;-83
2022/08/27 02:21:20;;;;;;;10.03;4.27;;;;;;;19.51;74.36;94304.31;4973386;28;20301;-82
2022/08/27 02:23:47;;;;;;;6.57;3.77;;;;;;;19.44;74.51;94310.53;4973738;28;20198;-84
2022/08/27 02:26:14;;;;;;;11.17;4.13;;;;;;;19.42;74.64;94312.50;4974186;28;20593;-82
2022/08/27 02:28:40;;;;;;;7.20;3.70;;;;;;;19.42;74.81;94305.50;4974211;28;20194;-82
2022/08/27 02:31:07;;;;;;;8.00;3.90;;;;;;;19.37;75.20;94305.31;4981057;28;20194;-84
2022/08/27 02:33:36;;;;;;;13.13;4.03;;;;;;;18.90;75.04;94239.75;4981387;28;20197;-79
2022/08/27 02:36:03;;;;;;;10.53;4.57;;;;;;;19.30;75.88;94305.34;4982291;28;20190;-80
2022/08/27 02:38:30;;;;;;;10.17;4.30;;;;;;;19.11;75.86;94284.59;4977620;28;20228;-78
2022/08/27 02:40:57;;;;;;;7.63;4.50;;;;;;;19.18;76.26;94303.56;4973973;28;20204;-78
2022/08/27 02:43:24;;;;;;;8.53;4.40;;;;;;;19.24;76.62;94320.91;4973053;28;20201;-79
2022/08/27 02:45:51;;;;;;;7.57;4.67;;;;;;;19.26;76.44;94321.50;4973853;28;20197;-84
2022/08/27 02:48:18;;;;;;;15.53;4.73;;;;;;;19.24;76.74;94318.31;4973504;28;20224;-85
2022/08/27 02:50:46;;;;;;;7.60;4.97;;;;;;;19.24;76.75;94324.28;4973378;28;20190;-84
2022/08/27 02:53:13;;;;;;;14.73;5.03;;;;;;;19.24;77.00;94321.69;4974327;28;20201;-80
2022/08/27 02:55:40;;;;;;;12.47;4.77;;;;;;;19.21;76.96;94321.28;4972362;28;20194;-79
2022/08/27 02:58:07;;;;;;;12.23;4.87;;;;;;;18.88;77.22;94275.44;4972594;28;20186;-78
2022/08/27 03:00:34;;;;;;;11.23;4.53;;;;;;;19.11;77.14;94308.72;4972659;28;20209;-78
2022/08/27 03:03:01;;;;;;;8.77;4.80;;;;;;;19.15;77.34;94322.88;4972356;28;20193;-78
2022/08/27 03:05:28;;;;;;;12.13;5.20;;;;;;;19.11;77.59;94320.91;4972120;28;20213;-77
2022/08/27 03:07:58;;;;;;;12.33;5.03;;;;;;;19.10;77.80;94325.28;4991966;28;20550;-78
2022/08/27 03:10:25;;;;;;;7.50;5.07;;;;;;;18.95;77.91;94307.31;4991445;28;20296;-77
2022/08/27 03:12:52;;;;;;;10.00;4.77;;;;;;;18.95;78.20;94304.72;4991985;28;20193;-79
2022/08/27 03:15:19;;;;;;;14.73;5.33;;;;;;;18.99;78.50;94318.09;4985583;28;20197;-78
2022/08/27 03:20:32;;;;;;;9.43;5.20;;;;;;;19.03;78.47;94330.44;4972029;28;20228;-77
2022/08/27 03:23:00;;;;;;;5.57;4.83;;;;;;;18.82;78.48;94299.53;4971822;28;20676;-77
2022/08/27 03:25:27;;;;;;;10.27;5.17;;;;;;;19.03;78.57;94337.44;4971791;28;20197;-77
2022/08/27 03:27:54;;;;;;;9.27;5.07;;;;;;;19.04;78.75;94328.66;4988386;28;20271;-77
2022/08/27 03:30:22;;;;;;;10.87;4.53;;;;;;;19.00;78.82;94332.66;4989529;28;20276;-79
2022/08/27 03:32:49;;;;;;;10.23;4.57;;;;;;;18.96;78.87;94329.66;4990623;28;20625;-75
2022/08/27 03:35:18;;;;;;;11.27;5.23;;;;;;;18.68;79.10;94301.28;4982596;28;20196;-79
2022/08/27 03:37:45;;;;;;;9.20;4.77;;;;;;;18.94;78.86;94336.03;4991641;28;20220;-78
2022/08/27 03:40:14;;;;;;;8.77;4.90;;;;;;;18.77;78.81;94313.09;4990874;28;20208;-77
2022/08/27 03:42:42;;;;;;;12.70;5.13;;;;;;;18.75;79.28;94309.91;4991709;28;20284;-80
2022/08/27 03:45:11;;;;;;;12.03;5.50;;;;;;;19.00;78.78;94332.66;4991201;28;20201;-77
2022/08/27 03:47:38;;;;;;;8.80;5.10;;;;;;;18.79;79.02;94310.31;4987366;28;20201;-81
2022/08/27 03:50:07;;;;;;;9.40;5.77;;;;;;;18.96;79.00;94341.84;4974040;28;20197;-82
2022/08/27 03:52:35;;;;;;;13.60;5.60;;;;;;;18.93;79.27;94339.63;4973995;28;20198;-78
2022/08/27 03:55:03;;;;;;;8.60;5.70;;;;;;;18.34;79.35;94254.81;4976414;28;20192;-86
2022/08/27 03:57:32;;;;;;;17.93;6.50;;;;;;;18.88;79.50;94340.22;4977956;28;20224;-78
2022/08/27 03:59:59;;;;;;;11.93;5.90;;;;;;;18.73;79.20;94311.09;4987700;28;20228;-81
2022/08/27 04:02:27;;;;;;;10.40;5.50;;;;;;;18.92;79.90;94351.00;4987006;28;20208;-83
2022/08/27 04:04:56;;;;;;;8.87;4.80;;;;;;;18.86;80.36;94347.38;4989711;28;20193;-90
2022/08/27 04:07:23;;;;;;;14.20;5.97;;;;;;;18.83;80.40;94349.59;4992293;28;20196;-81
2022/08/27 04:09:50;;;;;;;13.73;5.70;;;;;;;18.84;80.43;94356.34;4991201;28;20572;-82
2022/08/27 04:12:17;;;;;;;12.60;5.50;;;;;;;18.77;80.44;94344.16;4990371;28;20284;-83
2022/08/27 04:14:45;;;;;;;13.67;5.27;;;;;;;18.86;80.82;94355.16;4990484;28;20236;-80
2022/08/27 04:17:12;;;;;;;8.07;5.13;;;;;;;18.79;80.94;94344.00;4990030;28;20193;-79
2022/08/27 04:19:39;;;;;;;15.27;5.47;;;;;;;18.88;81.01;94355.75;4990189;28;20217;-77
2022/08/27 04:22:07;;;;;;;13.07;5.07;;;;;;;18.90;80.88;94361.53;4990301;28;20232;-81
2022/08/27 04:24:36;;;;;;;7.17;5.17;;;;;;;18.93;81.02;94361.16;4984091;28;20268;-83
2022/08/27 04:27:05;;;;;;;10.30;5.90;;;;;;;18.74;81.22;94336.81;4971831;28;20189;-85
2022/08/27 04:29:32;;;;;;;8.57;5.30;;;;;;;18.96;81.09;94360.75;4970655;28;20380;-82
2022/08/27 04:32:01;;;;;;;11.30;5.13;;;;;;;19.03;81.38;94371.13;4979917;28;20201;-83
2022/08/27 04:34:28;;;;;;;10.03;4.97;;;;;;;18.72;81.27;94315.47;4982564;28;20193;-81
2022/08/27 04:36:56;;;;;;;8.00;5.63;;;;;;;19.16;81.05;94367.75;4971140;28;20244;-83
2022/08/27 04:39:24;;;;;;;9.30;5.93;;;;;;;19.24;80.17;94363.16;4970816;28;20213;-80
2022/08/27 04:41:51;;;;;;;9.37;4.77;;;;;;;19.36;79.09;94360.78;4970625;28;20186;-78
2022/08/27 04:44:19;;;;;;;12.67;5.03;;;;;;;19.50;78.41;94370.16;4970265;28;20205;-80
2022/08/27 04:46:46;;;;;;;8.20;5.17;;;;;;;19.63;77.84;94369.38;4970684;28;20197;-79
2022/08/27 04:49:15;;;;;;;9.23;5.17;;;;;;;19.73;77.59;94366.34;4970628;28;20198;-80
2022/08/27 04:51:43;;;;;;;11.50;5.83;;;;;;;19.86;77.29;94365.53;4969712;28;20197;-79
2022/08/27 04:54:10;;;;;;;10.63;5.27;;;;;;;19.93;76.80;94374.13;4970750;28;20281;-82
2022/08/27 04:56:38;;;;;;;8.57;5.30;;;;;;;19.96;76.28;94355.56;4971389;28;20292;-82
2022/08/27 04:59:07;;;;;;;8.30;5.20;;;;;;;20.09;75.88;94372.91;4970393;28;20612;-79
2022/08/27 05:01:34;;;;;;;10.97;5.17;;;;;;;19.95;75.94;94341.00;4970563;28;20659;-77
2022/08/27 05:04:06;;;;;;;11.67;5.23;;;;;;;19.48;75.35;94267.63;4970657;28;20193;-79
2022/08/27 05:06:36;;;;;;;17.53;5.33;;;;;;;20.31;75.55;94376.81;4970931;28;20194;-80
2022/08/27 05:09:04;;;;;;;9.47;5.23;;;;;;;20.40;74.58;94379.97;4970328;28;20620;-79
2022/08/27 05:11:33;;;;;;;11.33;5.60;;;;;;;20.02;73.83;94311.38;4970293;28;20657;-77
2022/08/27 05:14:02;;;;;;;10.33;5.60;;;;;;;19.62;73.08;94252.84;4970158;28;20236;-81
2022/08/27 05:16:29;;;;;;;15.40;5.80;;;;;;;20.64;72.86;94386.28;4970647;28;20359;-78
2022/08/27 05:18:58;;;;;;;14.50;5.83;;;;;;;20.61;73.52;94379.72;4970400;28;20198;-80
2022/08/27 05:21:28;;;;;;;14.57;5.47;;;;;;;20.80;73.07;94381.41;4970665;28;20244;-78
2022/08/27 05:23:58;;;;;;;15.88;5.85;;;;;;;20.97;72.08;94383.53;4970566;28;20186;-79
2022/08/27 05:26:26;;;;;;;23.50;6.97;;;;;;;20.56;70.83;94282.63;4970676;28;20233;-83
2022/08/27 05:28:53;;;;;;;10.18;6.32;;;;;;;21.25;69.99;94351.94;4970436;28;20194;-81
2022/08/27 05:31:21;;;;;;;19.02;6.47;;;;;;;21.70;69.41;94391.63;4970148;28;20574;-81
2022/08/27 05:33:49;;;;;;;6.97;5.72;;;;;;;21.93;68.76;94390.22;4970826;28;20616;-80
2022/08/27 05:36:18;;;;;;;15.88;6.45;;;;;;;21.98;68.22;94365.13;4970426;28;20193;-78
2022/08/27 05:38:47;;;;;;;15.20;6.20;;;;;;;22.43;67.70;94390.13;4970295;28;20284;-80
2022/08/27 05:41:17;;;;;;;11.60;6.35;;;;;;;22.39;66.54;94352.50;4970106;28;20225;-81
2022/08/27 05:43:48;;;;;;;8.52;5.68;;;;;;;22.78;65.60;94385.88;4970161;28;20197;-81
2022/08/27 05:46:17;;;;;;;10.95;6.00;;;;;;;23.12;65.18;94399.28;4970185;28;20699;-80
2022/08/27 05:48:45;;;;;;;12.43;6.90;;;;;;;22.96;64.11;94343.31;4970331;28;20285;-81
2022/08/27 05:51:14;;;;;;;12.32;6.15;;;;;;;23.51;63.20;94390.06;4970235;28;20240;-80
2022/08/27 05:53:45;;;;;;;15.15;5.65;;;;;;;23.37;62.21;94339.09;4970422;28;20205;-81
2022/08/27 05:56:13;;;;;;;10.13;5.97;;;;;;;22.99;60.85;94262.03;4971754;28;20240;-80
2022/08/27 06:01:28;;;;;;;10.48;5.90;;;;;;;23.83;60.91;94400.22;4970005;28;20225;-79
2022/08/27 06:03:55;;;;;;;7.82;5.50;;;;;;;23.90;61.07;94389.69;4973929;28;20213;-79
2022/08/27 06:06:22;;;;;;;16.92;6.10;;;;;;;24.07;59.79;94398.41;4973353;28;20558;-78
2022/08/27 06:08:50;;;;;;;8.18;6.22;;;;;;;24.16;59.60;94407.50;4973339;28;20197;-78
2022/08/27 06:11:17;;;;;;;11.23;5.03;;;;;;;24.18;60.11;94402.84;4973781;28;20479;-78
2022/08/27 06:13:47;;;;;;;15.82;6.03;;;;;;;24.32;60.14;94406.00;4973552;28;20229;-81
2022/08/27 06:16:16;;;;;;;18.52;6.10;;;;;;;24.44;58.26;94406.03;4973721;28;20514;-80
2022/08/27 06:18:45;;;;;;;15.85;5.55;;;;;;;24.54;57.43;94411.44;4973389;28;20280;-81
2022/08/27 06:21:14;;;;;;;10.20;5.65;;;;;;;24.56;57.35;94413.81;4973355;28;20779;-78
2022/08/27 06:23:41;;;;;;;9.43;5.40;;;;;;;24.65;56.38;94410.59;4973500;28;20201;-76
2022/08/27 06:26:11;;;;;;;12.05;6.13;;;;;;;24.64;55.38;94408.22;4974051;28;20699;-81
2022/08/27 06:28:40;;;;;;;10.45;5.85;;;;;;;24.58;56.87;94411.78;4973617;28;20206;-78
2022/08/27 06:31:11;;;;;;;8.10;4.68;;;;;;;24.81;56.73;94408.28;4972460;28;20190;-79
2022/08/27 06:33:38;;;;;;;11.73;5.18;;;;;;;25.13;55.54;94414.69;4972910;28;20220;-78
2022/08/27 06:36:08;;;;;;;13.32;4.93;;;;;;;25.44;55.22;94409.97;4973125;28;20204;-78
2022/08/27 06:38:35;;;;;;;17.52;6.28;;;;;;;25.58;54.16;94411.25;4972985;28;20284;-78
2022/08/27 06:41:03;;;;;;;9.18;4.88;;;;;;;25.42;54.70;94347.34;4973019;28;20225;-78
2022/08/27 06:43:30;;;;;;;12.48;5.20;;;;;;;25.97;54.50;94411.34;4973059;28;20585;-78
2022/08/27 06:45:57;;;;;;;9.95;5.40;;;;;;;25.93;53.89;94384.03;4972907;28;20205;-79
2022/08/27 06:48:26;;;;;;;9.93;5.35;;;;;;;26.21;52.94;94409.34;4955910;28;20255;-78
2022/08/27 06:50:54;;;;;;;8.20;5.05;;;;;;;26.33;52.67;94410.00;4972641;28;20585;-77
2022/08/27 06:53:21;;;;;;;7.97;4.80;;;;;;;26.40;51.28;94408.00;4972564;28;20196;-77
2022/08/27 06:55:49;;;;;;;9.50;5.63;;;;;;;26.38;50.98;94410.09;4973101;28;20230;-83
2022/08/27 06:58:18;;;;;;;12.13;4.72;;;;;;;25.94;51.32;94338.44;4973167;28;20190;-81
2022/08/27 07:00:45;;;;;;;9.02;4.93;;;;;;;26.55;51.70;94412.66;4972475;28;20221;-82
2022/08/27 07:03:12;;;;;;;11.70;5.45;;;;;;;26.47;51.28;94384.25;4972280;28;20558;-81
2022/08/27 07:05:40;;;;;;;11.80;4.80;;;;;;;26.57;49.98;94402.72;4972731;28;20941;-82
2022/08/27 07:08:08;;;;;;;10.85;4.40;;;;;;;26.63;51.61;94403.56;4972207;28;20303;-78
2022/08/27 07:10:35;;;;;;;10.32;4.32;;;;;;;26.56;51.29;94350.53;4972614;28;20217;-80
2022/08/27 07:13:02;;;;;;;9.32;4.65;;;;;;;27.09;49.53;94401.47;4971970;28;20230;-79
2022/08/27 07:15:29;;;;;;;8.02;4.82;;;;;;;27.19;49.59;94404.22;4972489;28;20205;-78
2022/08/27 07:17:56;;;;;;;8.35;5.15;;;;;;;27.42;48.55;94398.66;4972222;28;20193;-79
2022/08/27 07:20:22;;;;;;;18.30;5.28;;;;;;;27.60;49.57;94401.94;4972554;28;20224;-81
2022/08/27 07:22:52;;;;;;;9.02;4.57;;;;;;;27.73;49.17;94397.09;4972054;28;20650;-78
2022/08/27 07:25:20;;;;;;;13.63;4.60;;;;;;;27.99;47.32;94402.53;4972217;28;20203;-79
2022/08/27 07:27:47;;;;;;;9.77;4.63;;;;;;;28.12;46.89;94399.44;4972392;28;20185;-78
2022/08/27 07:30:15;;;;;;;9.90;4.72;;;;;;;28.31;47.41;94409.53;4972355;28;20703;-78
2022/08/27 07:32:42;;;;;;;8.70;4.05;;;;;;;28.29;47.04;94387.97;4972275;28;20198;-80
2022/08/27 07:35:10;;;;;;;13.45;4.30;;;;;;;28.53;46.03;94417.31;4972238;28;20194;-78
2022/08/27 07:37:38;;;;;;;11.48;4.53;;;;;;;28.60;46.46;94410.75;4972001;28;20194;-79
2022/08/27 07:40:09;;;;;;;7.55;4.07;;;;;;;28.46;46.18;94417.56;4972065;28;20225;-78
2022/08/27 07:45:20;;;;;;;17.60;4.63;;;;;;;28.24;46.29;94392.16;4972329;28;20192;-78
2022/08/27 07:47:49;;;;;;;9.13;4.78;;;;;;;28.54;46.52;94422.31;4972463;28;20290;-78
2022/08/27 07:50:16;;;;;;;9.90;4.43;;;;;;;28.55;46.88;94400.22;4972619;28;20218;-78
2022/08/27 07:52:43;;;;;;;11.10;4.75;;;;;;;28.86;46.27;94418.75;4973140;28;20189;-79
2022/08/27 07:55:12;;;;;;;12.10;4.22;;;;;;;28.84;44.62;94400.56;4972298;28;20198;-79
2022/08/27 07:57:39;;;;;;;8.50;3.83;;;;;;;29.04;45.79;94423.56;4972850;28;20194;-77
2022/08/27 08:00:09;;;;;;;6.32;4.20;;;;;;;29.20;45.31;94419.94;4988613;28;20231;-78
2022/08/27 08:02:37;;;;;;;15.05;5.15;;;;;;;28.90;45.29;94417.19;4995640;28;20223;-78
2022/08/27 08:05:05;;;;;;;13.73;4.80;;;;;;;28.77;45.42;94421.09;4983184;28;20804;-77
2022/08/27 08:07:32;;;;;;;12.10;4.68;;;;;;;28.77;45.46;94417.69;4987794;28;20203;-78
2022/08/27 08:09:59;;;;;;;8.15;4.28;;;;;;;28.71;45.05;94414.22;4971897;28;20201;-77
2022/08/27 08:12:27;;;;;;;10.50;3.92;;;;;;;28.70;45.70;94421.31;4971423;28;20568;-79
2022/08/27 08:14:56;;;;;;;10.20;4.32;;;;;;;28.68;45.74;94414.75;4970656;28;20225;-79
2022/08/27 08:17:24;;;;;;;8.07;4.60;;;;;;;28.67;45.28;94413.97;4971528;28;20194;-78
2022/08/27 08:19:51;;;;;;;11.95;4.38;;;;;;;28.66;44.67;94407.09;4971075;28;20240;-80
2022/08/27 08:22:18;;;;;;;8.05;4.00;;;;;;;28.48;45.67;94374.13;4972681;28;20196;-78
2022/08/27 08:24:44;;;;;;;13.88;4.70;;;;;;;28.78;44.98;94406.09;4970629;28;20228;-78
2022/08/27 08:27:11;;;;;;;8.77;4.95;;;;;;;28.78;44.56;94406.88;4970846;28;20186;-81
2022/08/27 08:29:39;;;;;;;6.50;4.30;;;;;;;28.65;44.24;94410.00;4970775;28;20706;-78
2022/08/27 08:32:07;;;;;;;8.02;4.30;;;;;;;28.71;44.69;94407.13;4970423;28;20681;-79
2022/08/27 08:34:35;;;;;;;12.63;4.20;;;;;;;28.72;44.21;94392.13;4971086;28;20208;-77
2022/08/27 08:37:03;;;;;;;11.63;5.47;;;;;;;28.88;44.22;94400.84;4970789;28;20336;-77
2022/08/27 08:39:30;;;;;;;8.70;4.55;;;;;;;28.96;43.49;94398.53;4970879;28;20687;-78
2022/08/27 08:41:59;;;;;;;9.45;4.55;;;;;;;29.08;44.26;94405.41;4970305;28;20221;-78
2022/08/27 08:44:31;;;;;;;17.38;4.85;;;;;;;29.17;44.28;94404.63;4970721;28;20205;-78
2022/08/27 08:47:04;;;;;;;16.40;4.65;;;;;;;29.30;43.76;94402.56;4970656;28;20200;-79
2022/08/27 08:49:39;;;;;;;6.22;4.40;;;;;;;29.56;43.64;94398.13;4970766;28;20198;-77
2022/08/27 08:52:16;;;;;;;14.65;4.95;;;;;;;29.74;42.96;94403.66;4970391;28;20197;-78
2022/08/27 08:54:44;;;;;;;9.13;4.05;;;;;;;29.91;41.96;94399.94;4970424;28;20200;-77
2022/08/27 08:57:20;;;;;;;11.00;4.30;;;;;;;29.97;41.34;94402.34;4971091;28;20193;-76
2022/08/27 08:59:55;;;;;;;7.70;3.63;;;;;;;30.06;41.55;94399.16;4970566;28;20189;-77
2022/08/27 09:02:24;;;;;;;9.52;4.55;;;;;;;30.18;40.92;94400.47;4970472;28;20232;-78
2022/08/27 09:04:51;;;;;;;9.65;4.22;;;;;;;29.93;41.20;94348.53;4970743;28;20189;-77
2022/08/27 09:07:28;;;;;;;10.52;4.47;;;;;;;30.39;41.22;94401.19;4970421;28;20193;-78
2022/08/27 09:10:00;;;;;;;7.30;4.07;;;;;;;30.45;39.89;94400.13;4970182;28;20198;-78
2022/08/27 09:12:32;;;;;;;10.95;4.20;;;;;;;30.50;39.75;94391.41;4970817;28;20186;-78
2022/08/27 09:15:02;;;;;;;15.15;4.63;;;;;;;30.65;40.15;94398.47;4970118;28;20612;-77
2022/08/27 09:17:32;;;;;;;6.93;4.25;;;;;;;30.48;39.19;94360.03;4970880;28;20259;-77
2022/08/27 09:19:59;;;;;;;13.23;3.92;;;;;;;30.73;39.77;94395.31;4970147;28;20204;-77
2022/08/27 09:22:42;;;;;;;7.78;3.85;;;;;;;30.82;39.04;94400.81;4970045;28;20656;-77
2022/08/27 09:25:14;;;;;;;11.25;4.03;;;;;;;30.86;38.88;94392.06;4970360;28;20186;-80
2022/08/27 09:27:43;;;;;;;10.07;4.22;;;;;;;30.92;39.08;94392.84;4970499;28;20198;-78
2022/08/27 09:30:12;;;;;;;9.85;4.65;;;;;;;30.96;38.82;94384.09;4969895;28;20201;-77
2022/08/27 09:32:40;;;;;;;9.10;3.95;;;;;;;31.06;38.65;94390.41;4970399;28;20197;-82
2022/08/27 09:35:10;;;;;;;8.60;3.85;;;;;;;31.12;37.55;94386.66;4970765;28;20193;-78
2022/08/27 09:37:42;;;;;;;10.75;4.47;;;;;;;31.17;38.61;94387.41;4972853;28;20194;-77
2022/08/27 09:40:19;;;;;;;14.27;4.15;;;;;;;31.08;36.88;94359.97;4974494;28;20202;-77
2022/08/27 09:42:49;;;;;;;16.85;4.82;;;;;;;31.29;37.33;94378.38;4973575;28;20653;-77
2022/08/27 09:45:19;;;;;;;10.35;3.83;;;;;;;31.32;37.37;94385.75;4973730;28;20201;-77
2022/08/27 09:47:49;;;;;;;12.07;4.25;;;;;;;31.32;37.88;94377.84;4973886;28;20253;-76
2022/08/27 09:50:19;;;;;;;8.80;4.30;;;;;;;31.36;37.79;94382.28;4973766;28;20198;-75
2022/08/27 09:52:52;;;;;;;7.15;3.72;;;;;;;31.42;38.16;94380.41;4973623;28;20204;-77
2022/08/27 09:55:30;;;;;;;8.07;3.60;;;;;;;31.43;37.68;94385.44;4973461;28;20317;-78
2022/08/27 09:57:58;;;;;;;11.15;3.63;;;;;;;31.45;36.46;94375.34;4973713;28;20201;-78
2022/08/27 10:00:35;;;;;;;14.38;3.83;;;;;;;31.46;36.36;94379.56;4973330;28;20204;-78
2022/08/27 10:03:05;;;;;;;10.07;4.10;;;;;;;31.33;36.83;94376.75;4973581;28;20220;-78
2022/08/27 10:05:37;;;;;;;13.02;3.60;;;;;;;31.35;37.01;94369.38;4973391;28;20198;-77
2022/08/27 10:08:15;;;;;;;13.70;3.10;;;;;;;31.33;36.57;94363.56;4973489;28;20186;-76
2022/08/27 10:10:52;;;;;;;13.77;3.90;;;;;;;31.39;36.37;94378.28;4973398;28;20221;-79
2022/08/27 10:13:24;;;;;;;7.95;3.40;;;;;;;31.41;35.43;94371.69;4973922;28;20233;-80
2022/08/27 10:16:09;;;;;;;5.32;3.60;;;;;;;31.22;35.27;94350.38;4972898;28;20190;-78
2022/08/27 10:18:48;;;;;;;11.27;4.50;;;;;;;31.17;35.24;94350.41;4973395;28;20194;-78
2022/08/27 10:21:22;;;;;;;8.05;3.63;;;;;;;31.29;34.86;94373.88;4973702;28;20611;-77
2022/08/27 10:24:02;;;;;;;14.60;3.70;;;;;;;31.27;34.93;94372.56;4973189;28;20208;-77
2022/08/27 10:26:40;;;;;;;9.63;3.25;;;;;;;31.23;34.95;94372.31;4973127;28;20208;-79
2022/08/27 10:29:16;;;;;;;11.00;3.78;;;;;;;31.22;33.22;94370.75;4973008;28;20198;-77
2022/08/27 10:31:53;;;;;;;8.18;3.47;;;;;;;31.13;33.78;94377.66;4973085;28;20186;-78
2022/08/27 10:34:34;;;;;;;11.43;3.35;;;;;;;31.04;32.47;94358.16;4973786;28;20186;-79
2022/08/27 10:37:13;;;;;;;8.90;3.03;;;;;;;30.76;32.91;94357.81;4972634;28;20223;-79
2022/08/27 10:39:51;;;;;;;11.35;3.17;;;;;;;30.95;34.15;94376.44;4974202;28;20187;-81
2022/08/27 10:42:26;;;;;;;13.32;4.47;;;;;;;30.81;34.93;94370.19;4973103;28;20229;-83
2022/08/27 10:45:04;;;;;;;6.30;3.45;;;;;;;30.90;33.39;94369.34;4972878;28;20200;-83
2022/08/27 10:47:52;;;;;;;11.07;3.35;;;;;;;30.92;34.27;94377.78;4972468;28;20193;-82
2022/08/27 10:50:27;;;;;;;17.73;3.55;;;;;;;30.86;33.45;94375.44;4972582;28;20386;-83
2022/08/27 10:53:01;;;;;;;13.07;3.47;;;;;;;30.84;34.10;94375.72;4973020;28;20248;-82
2022/08/27 10:55:32;;;;;;;12.98;3.90;;;;;;;30.87;34.60;94371.72;4972560;28;20193;-82
2022/08/27 10:58:16;;;;;;;7.78;4.03;;;;;;;30.93;33.96;94371.44;4972987;28;20190;-83
2022/08/27 11:00:49;;;;;;;7.63;3.40;;;;;;;30.96;34.65;94364.84;4972108;28;20209;-83
2022/08/27 11:03:31;;;;;;;9.55;4.15;;;;;;;30.99;34.63;94365.06;4972700;28;20197;-83
2022/08/27 11:06:03;;;;;;;12.75;3.63;;;;;;;31.01;34.60;94359.50;4972551;28;20201;-82
2022/08/27 11:08:38;;;;;;;5.47;3.47;;;;;;;31.02;34.19;94361.09;4976068;28;20190;-81
2022/08/27 11:11:10;;;;;;;9.30;3.88;;;;;;;31.01;33.86;94353.44;4975210;28;20208;-81
2022/08/27 11:13:39;;;;;;;13.38;3.50;;;;;;;31.02;34.09;94362.94;4973277;28;20237;-81
2022/08/27 11:16:12;;;;;;;8.48;4.32;;;;;;;30.81;34.88;94328.72;4972526;28;20193;-83
2022/08/27 11:18:46;;;;;;;8.15;4.25;;;;;;;30.82;34.88;94338.22;4972910;28;20289;-81
2022/08/27 11:21:22;;;;;;;12.15;4.28;;;;;;;30.65;33.98;94327.19;4972418;28;20770;-80
2022/08/27 11:23:55;;;;;;;7.68;3.85;;;;;;;30.65;33.44;94312.13;4972496;28;20198;-83
2022/08/27 11:26:23;;;;;;;16.05;4.25;;;;;;;30.78;33.82;94360.94;4973193;28;20664;-80
2022/08/27 11:28:53;;;;;;;9.68;3.75;;;;;;;30.70;33.73;94351.72;4973083;28;20190;-81
2022/08/27 11:31:30;;;;;;;6.65;4.05;;;;;;;30.77;33.33;94358.59;4972985;28;20638;-77
2022/08/27 11:34:04;;;;;;;11.50;3.55;;;;;;;30.66;32.62;94334.06;4971962;28;20186;-77
2022/08/27 11:37:02;;;;;;;8.75;3.80;;;;;;;30.70;34.03;94345.63;4971909;28;20196;-78
2022/08/27 11:39:44;;;;;;;8.98;3.53;;;;;;;30.46;33.29;94324.38;4971653;28;20197;-84
2022/08/27 11:42:20;;;;;;;5.72;3.88;;;;;;;30.44;34.30;94337.88;4972068;28;20434;-81
2022/08/27 11:44:50;;;;;;;17.80;3.80;;;;;;;30.47;33.89;94342.59;4971664;28;20580;-82
2022/08/27 11:47:21;;;;;;;9.88;4.18;;;;;;;30.46;33.71;94345.50;4971531;28;20716;-83
2022/08/27 11:49:51;;;;;;;9.05;4.35;;;;;;;30.52;33.52;94341.75;4972122;28;20186;-81